Time;durP1;ratioP1;P1;durP2;ratioP2;P2;SDS_P1;SDS_P2;PMS_P1;PMS_P2;Temp;Humidity;BMP_temperature;BMP_pressure;BME280_temperature;BME280_humidity;BME280_pressure;Samples;Min_cycle;Max_cycle;Signal;HPM_P1;HPM_P2
2022/10/12 00:01:30;;;;;;;23.48;10.32;;;;;;;;;;4406203;32;19933;-73
2022/10/12 00:03:55;;;;;;;19.62;8.50;;;;;;;;;;4405326;32;20035;-73
2022/10/12 00:06:20;;;;;;;;;;;;;;;;;;4406095;32;20029;-72
2022/10/12 00:08:46;;;;;;;27.10;10.70;;;;;;;;;;4405942;32;19975;-73
2022/10/12 00:11:11;;;;;;;;;;;;;;;;;;4405859;32;20405;-74
2022/10/12 00:13:36;;;;;;;28.02;10.90;;;;;;;;;;4405686;32;19995;-70
2022/10/12 00:16:01;;;;;;;;;;;;;;;;;;4407156;32;20146;-73
2022/10/12 00:18:27;;;;;;;22.52;9.70;;;;;;;;;;4405460;32;19941;-73
2022/10/12 00:20:52;;;;;;;;;;;;;;;;;;4405493;32;20049;-72
2022/10/12 00:23:17;;;;;;;26.17;11.55;;;;;;;;;;4406481;32;19975;-72
2022/10/12 00:25:46;;;;;;;20.60;9.52;;;;;;;;;;4405947;32;20378;-73
2022/10/12 00:28:11;;;;;;;21.55;10.35;;;;;;;;;;4405383;32;20183;-73
2022/10/12 00:30:36;;;;;;;;;;;;;;;;;;4405917;32;20053;-73
2022/10/12 00:33:05;;;;;;;28.15;9.93;;;;;;;;;;4405105;32;19968;-73
2022/10/12 00:35:30;;;;;;;26.25;11.05;;;;;;;;;;4405575;32;20509;-72
2022/10/12 00:40:39;;;;;;;28.27;11.50;;;;;;;;;;4405191;32;19991;-73
2022/10/12 00:43:04;;;;;;;;;;;;;;;;;;4405749;32;20383;-72
2022/10/12 00:45:31;;;;;;;20.48;10.80;;;;;;;;;;4405491;32;19942;-73
2022/10/12 00:47:58;;;;;;;22.55;10.85;;;;;;;;;;4405393;32;20039;-72
2022/10/12 00:50:37;;;;;;;22.75;10.63;;;;;;;;;;4405094;32;20034;-72
2022/10/12 00:53:04;;;;;;;23.80;10.57;;;;;;;;;;4408359;32;20079;-73
2022/10/12 00:55:35;;;;;;;24.92;10.25;;;;;;;;;;4409023;32;20416;-73
2022/10/12 01:01:09;;;;;;;21.15;11.35;;;;;;;;;;4399597;32;20084;-72
2022/10/12 01:03:35;;;;;;;22.62;10.85;;;;;;;;;;4408785;32;20056;-72
2022/10/12 01:06:02;;;;;;;;;;;;;;;;;;4408531;32;20147;-72
2022/10/12 01:08:28;;;;;;;26.12;10.55;;;;;;;;;;4408047;32;19938;-72
2022/10/12 01:10:54;;;;;;;;;;;;;;;;;;4408206;32;20414;-73
2022/10/12 01:13:19;;;;;;;17.37;10.20;;;;;;;;;;4394182;32;19929;-73
2022/10/12 01:15:45;;;;;;;;;;;;;;;;;;4408843;32;20034;-73
2022/10/12 01:18:39;;;;;;;30.37;11.65;;;;;;;;;;4408061;32;20232;-73
2022/10/12 01:21:17;;;;;;;31.25;11.18;;;;;;;;;;4408272;32;20034;-72
2022/10/12 01:23:42;;;;;;;22.00;10.85;;;;;;;;;;4407530;32;20066;-72
2022/10/12 01:26:07;;;;;;;;;;;;;;;;;;4408444;32;20030;-72
2022/10/12 01:28:41;;;;;;;20.62;10.48;;;;;;;;;;4407716;32;20254;-72
2022/10/12 01:31:14;;;;;;;28.80;12.43;;;;;;;;;;4407914;32;20127;-73
2022/10/12 01:33:53;;;;;;;22.42;12.00;;;;;;;;;;4408268;32;20064;-73
2022/10/12 01:36:29;;;;;;;27.83;12.40;;;;;;;;;;4408177;32;20084;-73
2022/10/12 01:38:54;;;;;;;;;;;;;;;;;;4408268;32;20041;-73
2022/10/12 01:41:29;;;;;;;28.20;12.02;;;;;;;;;;4407364;32;19971;-73
2022/10/12 01:43:54;;;;;;;30.73;13.65;;;;;;;;;;4408122;32;20144;-73
2022/10/12 01:46:19;;;;;;;;;;;;;;;;;;4393469;32;20038;-73
2022/10/12 01:48:46;;;;;;;30.70;13.57;;;;;;;;;;4407682;32;19960;-73
2022/10/12 01:51:15;;;;;;;31.98;12.25;;;;;;;;;;4407500;32;20075;-73
2022/10/12 01:53:44;;;;;;;27.27;12.95;;;;;;;;;;4407218;32;20417;-73
2022/10/12 01:56:18;;;;;;;28.55;14.38;;;;;;;;;;4407585;32;20105;-72
2022/10/12 01:58:51;;;;;;;27.55;12.98;;;;;;;;;;4400017;32;20031;-72
2022/10/12 02:01:16;;;;;;;21.55;12.80;;;;;;;;;;4392397;32;20022;-72
2022/10/12 02:03:44;;;;;;;;;;;;;;;;;;4391693;32;20093;-72
2022/10/12 02:06:12;;;;;;;25.45;12.60;;;;;;;;;;4392193;32;19970;-72
2022/10/12 02:08:46;;;;;;;22.25;13.90;;;;;;;;;;4391918;32;20102;-72
2022/10/12 02:11:12;;;;;;;25.15;13.25;;;;;;;;;;4392166;32;20065;-73
2022/10/12 02:14:02;;;;;;;28.87;13.52;;;;;;;;;;4392696;32;20079;-73
2022/10/12 02:16:30;;;;;;;30.42;15.82;;;;;;;;;;4387292;32;20380;-73
2022/10/12 02:18:56;;;;;;;22.02;12.73;;;;;;;;;;4392032;32;20027;-72
2022/10/12 02:21:21;;;;;;;;;;;;;;;;;;4378627;32;20073;-73
2022/10/12 02:23:51;;;;;;;28.15;13.05;;;;;;;;;;4391402;32;19961;-73
2022/10/12 02:26:16;;;;;;;25.27;13.85;;;;;;;;;;4391658;32;20432;-72
2022/10/12 02:28:41;;;;;;;;;;;;;;;;;;4392146;32;20058;-73
2022/10/12 02:31:43;;;;;;;26.45;13.62;;;;;;;;;;4393031;32;20300;-73
2022/10/12 02:34:13;;;;;;;27.35;15.07;;;;;;;;;;4391707;32;20119;-73
2022/10/12 02:36:43;;;;;;;22.27;14.60;;;;;;;;;;4404213;32;20432;-73
2022/10/12 02:39:15;;;;;;;21.20;10.27;;;;;;;;;;4406586;32;20412;-75
2022/10/12 02:41:42;;;;;;;22.50;13.60;;;;;;;;;;4406381;32;20080;-73
2022/10/12 02:44:10;;;;;;;24.83;14.05;;;;;;;;;;4407074;32;20438;-73
2022/10/12 02:46:37;;;;;;;25.30;13.15;;;;;;;;;;4407310;32;20052;-73
2022/10/12 02:49:03;;;;;;;31.60;14.10;;;;;;;;;;4406345;32;20059;-73
2022/10/12 02:51:29;;;;;;;28.90;14.90;;;;;;;;;;4406670;32;20038;-73
2022/10/12 02:53:55;;;;;;;;;;;;;;;;;;4406643;32;20432;-72
2022/10/12 02:56:20;;;;;;;24.77;15.05;;;;;;;;;;4407116;32;19946;-73
2022/10/12 02:58:46;;;;;;;;;;;;;;;;;;4406764;32;20356;-73
2022/10/12 03:01:12;;;;;;;31.42;14.65;;;;;;;;;;4406707;32;20308;-73
2022/10/12 03:03:37;;;;;;;;;;;;;;;;;;4406349;32;20197;-73
2022/10/12 03:06:02;;;;;;;24.65;14.45;;;;;;;;;;4403684;32;20005;-73
2022/10/12 03:08:27;;;;;;;;;;;;;;;;;;4390942;32;20052;-73
2022/10/12 03:10:52;;;;;;;22.75;12.90;;;;;;;;;;4391097;32;20256;-73
2022/10/12 03:13:18;;;;;;;30.60;15.20;;;;;;;;;;4391654;32;20409;-73
2022/10/12 03:15:43;;;;;;;;;;;;;;;;;;4391492;32;20034;-73
2022/10/12 03:18:08;;;;;;;27.45;15.20;;;;;;;;;;4391650;32;19993;-73
2022/10/12 03:20:33;;;;;;;;;;;;;;;;;;4392287;32;20023;-72
2022/10/12 03:22:59;;;;;;;28.62;15.20;;;;;;;;;;4391106;32;19976;-73
2022/10/12 03:25:24;;;;;;;;;;;;;;;;;;4392397;32;20195;-72
2022/10/12 03:27:49;;;;;;;23.15;13.43;;;;;;;;;;4391149;32;19971;-73
2022/10/12 03:30:14;;;;;;;27.20;14.90;;;;;;;;;;4390747;32;20018;-72
2022/10/12 03:32:40;;;;;;;;;;;;;;;;;;4392147;32;20046;-74
2022/10/12 03:35:05;;;;;;;20.30;12.68;;;;;;;;;;4390785;32;19933;-72
2022/10/12 03:37:30;;;;;;;;;;;;;;;;;;4392101;32;20396;-72
2022/10/12 03:39:56;;;;;;;24.48;13.50;;;;;;;;;;4390691;32;19948;-72
2022/10/12 03:42:21;;;;;;;;;;;;;;;;;;4402330;32;20434;-72
2022/10/12 03:44:46;;;;;;;28.08;11.02;;;;;;;;;;4405923;32;19948;-73
2022/10/12 03:47:11;;;;;;;18.23;11.18;;;;;;;;;;4406058;32;20489;-73
2022/10/12 03:49:36;;;;;;;;;;;;;;;;;;4406357;32;20022;-73
2022/10/12 03:52:02;;;;;;;25.40;10.43;;;;;;;;;;4406201;32;19984;-73
2022/10/12 03:54:27;;;;;;;;;;;;;;;;;;4406528;32;20463;-74
2022/10/12 03:56:52;;;;;;;23.23;10.77;;;;;;;;;;4405646;32;19969;-73
2022/10/12 03:59:17;;;;;;;;;;;;;;;;;;4391890;32;20472;-73
2022/10/12 04:01:42;;;;;;;19.33;10.07;;;;;;;;;;4405452;32;20022;-72
2022/10/12 04:04:08;;;;;;;;;;;;;;;;;;4407213;32;20126;-73
2022/10/12 04:06:33;;;;;;;15.40;10.27;;;;;;;;;;4406000;32;19933;-73
2022/10/12 04:08:58;;;;;;;;;;;;;;;;;;4405468;32;20171;-72
2022/10/12 04:11:23;;;;;;;24.73;10.70;;;;;;;;;;4405612;32;19948;-73
2022/10/12 04:13:48;;;;;;;;;;;;;;;;;;4405570;32;20026;-72
2022/10/12 04:16:14;;;;;;;25.12;11.25;;;;;;;;;;4405671;32;19933;-73
2022/10/12 04:18:39;;;;;;;;;;;;;;;;;;4405413;32;20027;-74
2022/10/12 04:21:07;;;;;;;18.33;10.55;;;;;;;;;;4406262;32;19967;-72
2022/10/12 04:23:33;;;;;;;26.80;12.95;;;;;;;;;;4404942;32;20099;-73
2022/10/12 04:25:58;;;;;;;;;;;;;;;;;;4406953;32;20026;-72
2022/10/12 04:28:23;;;;;;;22.58;10.68;;;;;;;;;;4405486;32;20308;-73
2022/10/12 04:30:48;;;;;;;;;;;;;;;;;;4392521;32;20134;-72
2022/10/12 04:33:14;;;;;;;42.86;11.46;;;;;;;;;;4405731;32;20316;-72
2022/10/12 04:35:39;;;;;;;;;;;;;;;;;;4405730;32;20097;-73
2022/10/12 04:38:05;;;;;;;24.50;11.68;;;;;;;;;;4404956;32;19933;-72
2022/10/12 04:40:30;;;;;;;;;;;;;;;;;;4405186;32;20153;-72
2022/10/12 04:42:55;;;;;;;23.25;11.85;;;;;;;;;;4405217;32;19979;-73
2022/10/12 04:45:20;;;;;;;;;;;;;;;;;;4406767;32;20126;-72
2022/10/12 04:47:45;;;;;;;21.10;11.60;;;;;;;;;;4405831;32;19942;-73
2022/10/12 04:50:10;;;;;;;;;;;;;;;;;;4406733;32;20148;-73
2022/10/12 04:52:36;;;;;;;18.62;10.48;;;;;;;;;;4405936;32;19937;-72
2022/10/12 04:55:01;;;;;;;;;;;;;;;;;;4405760;32;20150;-72
2022/10/12 04:57:26;;;;;;;25.52;12.95;;;;;;;;;;4405736;32;19993;-72
2022/10/12 04:59:51;;;;;;;24.55;13.62;;;;;;;;;;4405791;32;20387;-73
2022/10/12 05:02:16;;;;;;;;;;;;;;;;;;4391682;32;20038;-72
2022/10/12 05:04:41;;;;;;;23.35;12.95;;;;;;;;;;4405985;32;19933;-72
2022/10/12 05:07:07;;;;;;;;;;;;;;;;;;4406503;32;20053;-74
2022/10/12 05:09:32;;;;;;;17.37;10.98;;;;;;;;;;4405271;32;19983;-73
2022/10/12 05:11:57;;;;;;;19.40;10.02;;;;;;;;;;4406759;32;20034;-73
2022/10/12 05:14:22;;;;;;;;;;;;;;;;;;4391178;32;20322;-72
2022/10/12 05:16:47;;;;;;;21.67;12.18;;;;;;;;;;4405147;32;19930;-72
2022/10/12 05:19:12;;;;;;;;;;;;;;;;;;4404945;32;20171;-74
2022/10/12 05:21:39;;;;;;;18.37;10.93;;;;;;;;;;4405070;32;20296;-72
2022/10/12 05:24:04;;;;;;;22.52;11.32;;;;;;;;;;4404692;32;20423;-72
2022/10/12 05:26:29;;;;;;;;;;;;;;;;;;4405477;32;20082;-74
2022/10/12 05:28:55;;;;;;;26.90;11.45;;;;;;;;;;4405202;32;20251;-73
2022/10/12 05:31:20;;;;;;;;;;;;;;;;;;4406826;32;20057;-72
2022/10/12 05:33:53;;;;;;;18.77;10.30;;;;;;;;;;4390910;32;19937;-72
2022/10/12 05:36:18;;;;;;;19.55;12.00;;;;;;;;;;4406705;32;20015;-73
2022/10/12 05:38:43;;;;;;;;;;;;;;;;;;4405560;32;20021;-74
2022/10/12 05:41:08;;;;;;;23.90;13.60;;;;;;;;;;4408088;32;20307;-73
2022/10/12 05:43:33;;;;;;;;;;;;;;;;;;4406106;32;20098;-72
2022/10/12 05:45:59;;;;;;;31.80;13.65;;;;;;;;;;4396949;32;20263;-74
2022/10/12 05:48:24;;;;;;;30.67;14.65;;;;;;;;;;4404573;32;20023;-73
2022/10/12 05:50:49;;;;;;;;;;;;;;;;;;4401534;32;20034;-73
2022/10/12 05:53:14;;;;;;;26.02;14.10;;;;;;;;;;4419763;32;19956;-73
2022/10/12 05:55:39;;;;;;;;;;;;;;;;;;4422700;32;20133;-73
2022/10/12 05:58:04;;;;;;;30.70;12.10;;;;;;;;;;4422088;32;19953;-73
2022/10/12 06:00:29;;;;;;;;;;;;;;;;;;4422633;32;20121;-73
2022/10/12 06:02:55;;;;;;;20.15;13.00;;;;;;;;;;4423156;32;19996;-72
2022/10/12 06:05:20;;;;;;;;;;;;;;;;;;4422007;32;20148;-73
2022/10/12 06:07:45;;;;;;;28.45;13.10;;;;;;;;;;4422713;32;19957;-71
2022/10/12 06:10:11;;;;;;;;;;;;;;;;;;4422531;32;20023;-72
2022/10/12 06:12:36;;;;;;;21.08;13.52;;;;;;;;;;4420796;32;19933;-73
2022/10/12 06:15:01;;;;;;;;;;;;;;;;;;4413205;32;20080;-75
2022/10/12 06:17:27;;;;;;;25.12;13.13;;;;;;;;;;4407894;32;20001;-72
2022/10/12 06:19:52;;;;;;;;;;;;;;;;;;4407946;32;20030;-72
2022/10/12 06:22:17;;;;;;;23.90;12.43;;;;;;;;;;4407993;32;19941;-72
2022/10/12 06:24:42;;;;;;;;;;;;;;;;;;4407352;32;20205;-72
2022/10/12 06:27:08;;;;;;;31.08;12.40;;;;;;;;;;4407039;32;19952;-73
2022/10/12 06:29:34;;;;;;;;;;;;;;;;;;4407714;32;20164;-72
2022/10/12 06:31:59;;;;;;;28.83;13.10;;;;;;;;;;4407121;32;19968;-73
2022/10/12 06:34:25;;;;;;;;;;;;;;;;;;4405228;32;20413;-73
2022/10/12 06:36:51;;;;;;;25.37;11.63;;;;;;;;;;4406279;32;19934;-72
2022/10/12 06:39:20;;;;;;;29.52;13.15;;;;;;;;;;4392545;32;20038;-73
2022/10/12 06:41:45;;;;;;;26.30;13.00;;;;;;;;;;4406562;32;20038;-74
2022/10/12 06:44:11;;;;;;;;;;;;;;;;;;4407219;32;20105;-72
2022/10/12 06:46:36;;;;;;;29.48;12.30;;;;;;;;;;4406483;32;19934;-74
2022/10/12 06:49:01;;;;;;;;;;;;;;;;;;4392855;32;20229;-72
2022/10/12 06:51:26;;;;;;;25.25;13.25;;;;;;;;;;4407061;32;19964;-73
2022/10/12 06:53:51;;;;;;;;;;;;;;;;;;4406788;32;20108;-72
2022/10/12 06:56:16;;;;;;;25.30;12.60;;;;;;;;;;4406298;32;19934;-72
2022/10/12 06:58:42;;;;;;;;;;;;;;;;;;4407121;32;20188;-73
2022/10/12 07:01:09;;;;;;;24.33;13.40;;;;;;;;;;4406756;32;20308;-73
2022/10/12 07:03:34;;;;;;;21.33;13.70;;;;;;;;;;4406195;32;20196;-73
2022/10/12 07:05:59;;;;;;;;;;;;;;;;;;4402082;32;20087;-73
2022/10/12 07:08:24;;;;;;;27.90;13.55;;;;;;;;;;4402951;32;19972;-73
2022/10/12 07:10:50;;;;;;;;;;;;;;;;;;4404238;32;20156;-74
2022/10/12 07:13:15;;;;;;;26.23;14.98;;;;;;;;;;4404514;32;19979;-71
2022/10/12 07:15:40;;;;;;;;;;;;;;;;;;4404192;32;20023;-71
2022/10/12 07:18:06;;;;;;;31.30;16.75;;;;;;;;;;4390284;32;19977;-73
2022/10/12 07:20:31;;;;;;;;;;;;;;;;;;4403681;32;20192;-73
2022/10/12 07:22:59;;;;;;;27.33;14.43;;;;;;;;;;4403257;32;20283;-73
2022/10/12 07:25:24;;;;;;;23.95;12.82;;;;;;;;;;4403029;32;20054;-72
2022/10/12 07:27:49;;;;;;;;;;;;;;;;;;4405759;32;20403;-71
2022/10/12 07:30:14;;;;;;;26.65;13.30;;;;;;;;;;4404331;32;19946;-72
2022/10/12 07:32:41;;;;;;;;;;;;;;;;;;4405278;32;20114;-74
2022/10/12 07:35:06;;;;;;;32.58;14.07;;;;;;;;;;4392404;32;19971;-73
2022/10/12 07:37:32;;;;;;;;;;;;;;;;;;4392212;32;20053;-73
2022/10/12 07:39:57;;;;;;;25.90;15.32;;;;;;;;;;4392471;32;19952;-73
2022/10/12 07:42:23;;;;;;;;;;;;;;;;;;4405738;32;20069;-73
2022/10/12 07:44:48;;;;;;;22.23;13.65;;;;;;;;;;4405556;32;19967;-71
2022/10/12 07:47:15;;;;;;;;;;;;;;;;;;4405690;32;20027;-72
2022/10/12 07:49:40;;;;;;;24.73;14.07;;;;;;;;;;4405478;32;20279;-73
2022/10/12 07:52:05;;;;;;;;;;;;;;;;;;4406424;32;20053;-73
2022/10/12 07:54:31;;;;;;;22.90;13.05;;;;;;;;;;4405524;32;19968;-74
2022/10/12 07:56:56;;;;;;;;;;;;;;;;;;4405989;32;20126;-72
2022/10/12 07:59:22;;;;;;;22.77;12.40;;;;;;;;;;4405683;32;19984;-73
2022/10/12 08:01:47;;;;;;;;;;;;;;;;;;4405697;32;20114;-73
2022/10/12 08:04:12;;;;;;;29.42;13.95;;;;;;;;;;4405978;32;20271;-72
2022/10/12 08:06:37;;;;;;;;;;;;;;;;;;4402358;32;20126;-73
2022/10/12 08:09:03;;;;;;;28.17;12.80;;;;;;;;;;4390695;32;19956;-73
2022/10/12 08:11:28;;;;;;;;;;;;;;;;;;4390395;32;20030;-73
2022/10/12 08:13:54;;;;;;;21.08;13.18;;;;;;;;;;4390028;32;19944;-73
2022/10/12 08:16:20;;;;;;;26.12;13.20;;;;;;;;;;4401336;32;20071;-73
2022/10/12 08:18:45;;;;;;;;;;;;;;;;;;4405941;32;20378;-73
2022/10/12 08:21:14;;;;;;;25.30;12.52;;;;;;;;;;4405312;32;19948;-73
2022/10/12 08:23:55;;;;;;;;;;;;;;;;;;;;;
2022/10/12 08:26:33;;;;;;;26.30;12.65;;;;;;;;;;4405993;32;20026;-73
2022/10/12 08:29:00;;;;;;;28.62;13.90;;;;;;;;;;4405395;32;20029;-74
2022/10/12 08:31:28;;;;;;;24.50;12.23;;;;;;;;;;4405891;32;20348;-73
2022/10/12 08:34:03;;;;;;;20.33;12.77;;;;;;;;;;4405130;32;20404;-73
2022/10/12 08:36:31;;;;;;;26.12;12.73;;;;;;;;;;4404528;32;20075;-74
2022/10/12 08:38:59;;;;;;;23.45;11.80;;;;;;;;;;4405138;32;20030;-74
2022/10/12 08:41:36;;;;;;;25.02;13.80;;;;;;;;;;4405820;32;20115;-73
2022/10/12 08:44:01;;;;;;;;;;;;;;;;;;4405699;32;20068;-74
2022/10/12 08:46:27;;;;;;;21.05;13.55;;;;;;;;;;4406643;32;19934;-73
2022/10/12 08:48:55;;;;;;;27.52;14.63;;;;;;;;;;4405308;32;20054;-74
2022/10/12 08:51:23;;;;;;;24.33;14.07;;;;;;;;;;4406234;32;20363;-74
2022/10/12 08:54:25;;;;;;;28.83;13.40;;;;;;;;;;4405343;32;20081;-73
2022/10/12 08:56:54;;;;;;;27.23;13.95;;;;;;;;;;4405376;32;20034;-74
2022/10/12 08:59:20;;;;;;;22.62;14.07;;;;;;;;;;4405247;32;20079;-74
2022/10/12 09:01:45;;;;;;;;;;;;;;;;;;4405266;32;20022;-73
2022/10/12 09:04:19;;;;;;;26.95;12.75;;;;;;;;;;4405928;32;19979;-74
2022/10/12 09:06:59;;;;;;;23.60;13.77;;;;;;;;;;4401711;32;20381;-74
2022/10/12 09:09:32;;;;;;;25.27;13.77;;;;;;;;;;4404896;32;20377;-74
2022/10/12 09:12:04;;;;;;;23.75;13.05;;;;;;;;;;4406073;32;20022;-73
2022/10/12 09:14:31;;;;;;;32.75;12.85;;;;;;;;;;4408270;32;20060;-74
2022/10/12 09:16:56;;;;;;;27.08;13.05;;;;;;;;;;4408101;32;20108;-73
2022/10/12 09:19:22;;;;;;;;;;;;;;;;;;4407851;32;20081;-74
2022/10/12 09:21:48;;;;;;;24.55;12.98;;;;;;;;;;4407750;32;20005;-73
2022/10/12 09:24:27;;;;;;;25.88;14.02;;;;;;;;;;4408067;32;20105;-72
2022/10/12 09:26:56;;;;;;;28.98;13.48;;;;;;;;;;4407693;32;20061;-73
2022/10/12 09:29:30;;;;;;;25.05;14.27;;;;;;;;;;4407772;32;20022;-74
2022/10/12 09:32:04;;;;;;;25.02;12.75;;;;;;;;;;4407604;32;20056;-74
2022/10/12 09:34:30;;;;;;;34.55;13.18;;;;;;;;;;4407275;32;20458;-73
2022/10/12 09:36:55;;;;;;;;;;;;;;;;;;4410536;32;20095;-73
2022/10/12 09:39:23;;;;;;;26.92;12.68;;;;;;;;;;4422788;32;19937;-73
2022/10/12 09:41:48;;;;;;;21.33;12.27;;;;;;;;;;4422946;32;20068;-73
2022/10/12 09:44:14;;;;;;;;;;;;;;;;;;4422923;32;20089;-74
2022/10/12 09:46:50;;;;;;;26.98;12.52;;;;;;;;;;4422714;32;20300;-73
2022/10/12 09:49:26;;;;;;;;;;;;;;;;;;;;;
2022/10/12 09:52:00;;;;;;;22.25;11.93;;;;;;;;;;4409776;32;20282;-73
2022/10/12 09:54:26;;;;;;;24.23;10.90;;;;;;;;;;4408413;32;20009;-73
2022/10/12 09:56:54;;;;;;;;;;;;;;;;;;4422835;32;20056;-73
2022/10/12 09:59:27;;;;;;;19.35;11.98;;;;;;;;;;4422944;32;20270;-73
2022/10/12 10:02:16;;;;;;;20.88;11.65;;;;;;;;;;4422435;32;20246;-74
2022/10/12 10:04:43;;;;;;;38.90;14.98;;;;;;;;;;4422667;32;20022;-73
2022/10/12 10:07:18;;;;;;;20.33;11.43;;;;;;;;;;4414129;32;20145;-74
2022/10/12 10:12:59;;;;;;;23.55;11.82;;;;;;;;;;4345355;33;20464;-74
2022/10/12 10:15:27;;;;;;;21.50;10.55;;;;;;;;;;4346082;33;20062;-74
2022/10/12 10:18:02;;;;;;;21.60;11.10;;;;;;;;;;4389226;32;20070;-74
2022/10/12 10:20:40;;;;;;;21.58;10.32;;;;;;;;;;4407184;32;20031;-74
2022/10/12 10:23:06;;;;;;;20.90;11.93;;;;;;;;;;4408073;32;20032;-73
2022/10/12 10:25:32;;;;;;;25.80;10.93;;;;;;;;;;4407619;32;20022;-73
2022/10/12 10:28:40;;;;;;;20.33;11.00;;;;;;;;;;4406925;32;20022;-74
2022/10/12 10:31:23;;;;;;;21.50;9.98;;;;;;;;;;4376631;32;20056;-74
2022/10/12 10:34:15;;;;;;;15.13;9.18;;;;;;;;;;4406838;32;20018;-73
2022/10/12 10:36:48;;;;;;;17.77;10.23;;;;;;;;;;4404121;32;20038;-73
2022/10/12 10:42:10;;;;;;;17.67;8.90;;;;;;;;;;4394292;32;20054;-73
2022/10/12 10:48:00;;;;;;;16.60;8.85;;;;;;;;;;4380587;32;20106;-73
2022/10/12 10:53:51;;;;;;;19.95;9.93;;;;;;;;;;4406824;32;20125;-74
2022/10/12 11:08:24;;;;;;;21.15;8.98;;;;;;;;;;4406321;32;20192;-75
2022/10/12 11:11:10;;;;;;;18.20;7.68;;;;;;;;;;4406733;32;20465;-73
2022/10/12 11:16:57;;;;;;;22.60;8.88;;;;;;;;;;4372179;32;20054;-75
2022/10/12 11:19:52;;;;;;;22.90;9.05;;;;;;;;;;4371828;32;20499;-74
2022/10/12 11:29:08;;;;;;;23.15;9.82;;;;;;;;;;4284882;33;20075;-74
2022/10/12 11:35:11;;;;;;;25.62;10.90;;;;;;;;;;4285707;33;20072;-74
2022/10/12 11:37:44;;;;;;;20.83;11.15;;;;;;;;;;4311206;33;20036;-74
2022/10/12 11:40:29;;;;;;;19.62;12.68;;;;;;;;;;4384729;32;20026;-74
2022/10/12 11:43:00;;;;;;;30.10;13.30;;;;;;;;;;4390017;32;20046;-74
2022/10/12 11:45:28;;;;;;;23.73;12.70;;;;;;;;;;4390572;32;20046;-74
2022/10/12 11:48:00;;;;;;;23.05;12.18;;;;;;;;;;4390486;32;20049;-74
2022/10/12 11:50:29;;;;;;;31.90;14.45;;;;;;;;;;4390768;32;20039;-73
2022/10/12 11:52:55;;;;;;;26.90;12.70;;;;;;;;;;4390698;32;20061;-74
2022/10/12 11:55:30;;;;;;;30.40;13.77;;;;;;;;;;4391107;32;20027;-73
2022/10/12 11:58:01;;;;;;;26.50;13.15;;;;;;;;;;4377090;32;20412;-74
2022/10/12 12:00:30;;;;;;;26.42;13.15;;;;;;;;;;4391243;32;20053;-74
2022/10/12 12:03:02;;;;;;;25.20;11.70;;;;;;;;;;4390698;32;20083;-73
2022/10/12 12:05:52;;;;;;;33.17;14.85;;;;;;;;;;4392333;32;20031;-73
2022/10/12 12:08:36;;;;;;;25.33;11.90;;;;;;;;;;4390496;32;20061;-73
2022/10/12 12:11:03;;;;;;;21.15;12.23;;;;;;;;;;4391270;32;20035;-73
2022/10/12 12:13:31;;;;;;;21.83;11.88;;;;;;;;;;4390703;32;20050;-73
2022/10/12 12:15:57;;;;;;;24.73;12.65;;;;;;;;;;4390949;32;20106;-73
2022/10/12 12:18:24;;;;;;;24.45;12.37;;;;;;;;;;4390547;32;20391;-73
2022/10/12 12:21:04;;;;;;;20.20;12.27;;;;;;;;;;4390419;32;20050;-73
2022/10/12 12:23:48;;;;;;;25.88;12.73;;;;;;;;;;4390053;32;20413;-73
2022/10/12 12:26:15;;;;;;;25.33;13.35;;;;;;;;;;4389998;32;20121;-73
2022/10/12 12:28:42;;;;;;;20.33;12.68;;;;;;;;;;4396639;32;20382;-73
2022/10/12 12:31:25;;;;;;;26.87;13.43;;;;;;;;;;4405554;32;20093;-73
2022/10/12 12:43:21;;;;;;;24.95;14.43;;;;;;;;;;4340331;33;20039;-75
2022/10/12 12:45:54;;;;;;;27.08;14.40;;;;;;;;;;4405563;32;20114;-75
2022/10/12 12:49:14;;;;;;;;;;;;;;;;;;;;;
2022/10/12 12:51:41;;;;;;;29.73;15.68;;;;;;;;;;4346483;33;20353;-74
2022/10/12 13:10:04;;;;;;;27.83;15.88;;;;;;;;;;4345644;33;20046;-75
2022/10/12 13:12:47;;;;;;;27.67;14.23;;;;;;;;;;4345948;33;20039;-74
2022/10/12 13:18:17;;;;;;;30.20;13.23;;;;;;;;;;4346543;33;20470;-74
2022/10/12 13:20:53;;;;;;;24.73;13.43;;;;;;;;;;4353908;33;20425;-74
2022/10/12 13:23:20;;;;;;;26.23;12.93;;;;;;;;;;4360654;32;20035;-75
2022/10/12 13:26:19;;;;;;;28.80;13.93;;;;;;;;;;4406733;32;20095;-75
2022/10/12 13:29:21;;;;;;;26.58;12.68;;;;;;;;;;4392979;32;20025;-74
2022/10/12 13:34:51;;;;;;;25.17;11.57;;;;;;;;;;4407953;32;20049;-75
2022/10/12 13:37:17;;;;;;;24.27;11.80;;;;;;;;;;4407142;32;20065;-75
2022/10/12 13:39:43;;;;;;;22.67;11.27;;;;;;;;;;4393537;32;20031;-75
2022/10/12 13:42:15;;;;;;;20.33;10.80;;;;;;;;;;4407223;32;20076;-75
2022/10/12 13:45:07;;;;;;;26.08;10.95;;;;;;;;;;4407318;32;20026;-75
2022/10/12 13:47:33;;;;;;;20.90;11.10;;;;;;;;;;4406029;32;20292;-76
2022/10/12 13:49:58;;;;;;;21.80;10.95;;;;;;;;;;4407747;32;20030;-75
2022/10/12 13:52:25;;;;;;;26.08;11.20;;;;;;;;;;4406972;32;20098;-75
2022/10/12 13:54:50;;;;;;;22.42;11.52;;;;;;;;;;4407237;32;20095;-76
2022/10/12 13:57:21;;;;;;;20.88;10.82;;;;;;;;;;4393598;32;20421;-74
2022/10/12 13:59:55;;;;;;;19.87;9.80;;;;;;;;;;4406461;32;20063;-75
2022/10/12 14:02:26;;;;;;;18.55;10.75;;;;;;;;;;4406930;32;20396;-75
2022/10/12 14:04:52;;;;;;;27.58;11.32;;;;;;;;;;4406783;32;20083;-74
2022/10/12 14:07:19;;;;;;;30.95;12.75;;;;;;;;;;4393285;32;20050;-75
2022/10/12 14:09:46;;;;;;;23.08;11.52;;;;;;;;;;4407171;32;20404;-75
2022/10/12 14:12:12;;;;;;;21.30;10.50;;;;;;;;;;4407023;32;20022;-75
2022/10/12 14:14:38;;;;;;;24.73;9.80;;;;;;;;;;4407381;32;20089;-74
2022/10/12 14:17:04;;;;;;;23.38;9.27;;;;;;;;;;4408058;32;20136;-74
2022/10/12 14:19:52;;;;;;;16.85;8.40;;;;;;;;;;4407392;32;20030;-74
2022/10/12 14:22:20;;;;;;;16.67;8.57;;;;;;;;;;4407427;32;20396;-74
2022/10/12 14:24:45;;;;;;;19.80;8.23;;;;;;;;;;4406655;32;20018;-74
2022/10/12 14:27:19;;;;;;;17.40;8.60;;;;;;;;;;4407025;32;20048;-74
2022/10/12 14:30:08;;;;;;;17.58;7.40;;;;;;;;;;4392030;32;20038;-74
2022/10/12 14:32:33;;;;;;;17.17;7.82;;;;;;;;;;4384449;32;20062;-73
2022/10/12 14:35:17;;;;;;;21.77;9.70;;;;;;;;;;4391558;32;20023;-75
2022/10/12 14:37:43;;;;;;;17.62;8.05;;;;;;;;;;4391258;32;20018;-75
2022/10/12 14:40:21;;;;;;;22.25;8.13;;;;;;;;;;4377617;32;20030;-74
2022/10/12 14:42:58;;;;;;;22.27;7.87;;;;;;;;;;4391397;32;20067;-74
2022/10/12 14:45:24;;;;;;;17.70;8.80;;;;;;;;;;4403213;32;20070;-73
2022/10/12 14:47:50;;;;;;;18.45;9.10;;;;;;;;;;4392124;32;20121;-74
2022/10/12 14:50:16;;;;;;;25.75;9.52;;;;;;;;;;4391969;32;20027;-74
2022/10/12 14:52:43;;;;;;;18.27;7.93;;;;;;;;;;4405662;32;20045;-74
2022/10/12 14:55:16;;;;;;;16.83;7.90;;;;;;;;;;4405810;32;20065;-74
2022/10/12 14:57:45;;;;;;;15.27;8.52;;;;;;;;;;4399947;32;20056;-73
2022/10/12 15:00:21;;;;;;;19.70;9.52;;;;;;;;;;4402149;32;20030;-75
2022/10/12 15:02:47;;;;;;;23.20;8.23;;;;;;;;;;4395609;32;20030;-76
2022/10/12 15:05:20;;;;;;;18.55;8.80;;;;;;;;;;4377856;32;20114;-74
2022/10/12 15:07:46;;;;;;;20.62;8.05;;;;;;;;;;4406964;32;20053;-75
2022/10/12 15:10:21;;;;;;;20.52;9.15;;;;;;;;;;4406683;32;20093;-75
2022/10/12 15:12:47;;;;;;;21.27;8.95;;;;;;;;;;4405878;32;20060;-74
2022/10/12 15:15:31;;;;;;;15.73;7.85;;;;;;;;;;4380972;32;20030;-75
2022/10/12 15:17:56;;;;;;;24.08;11.12;;;;;;;;;;4390987;32;20432;-75
2022/10/12 15:20:22;;;;;;;15.38;8.23;;;;;;;;;;4391045;32;20034;-75
2022/10/12 15:22:47;;;;;;;18.87;7.68;;;;;;;;;;4391934;32;20025;-75
2022/10/12 15:25:17;;;;;;;19.77;9.20;;;;;;;;;;4405712;32;20074;-75
2022/10/12 15:27:42;;;;;;;16.77;7.93;;;;;;;;;;4405347;32;20089;-75
2022/10/12 15:30:08;;;;;;;15.85;8.52;;;;;;;;;;4397390;32;20022;-75
2022/10/12 15:32:33;;;;;;;19.87;8.02;;;;;;;;;;4405567;32;20034;-75
2022/10/12 15:34:59;;;;;;;22.35;9.82;;;;;;;;;;4406196;32;20058;-75
2022/10/12 15:37:29;;;;;;;19.37;8.70;;;;;;;;;;4406164;32;20023;-75
2022/10/12 15:39:54;;;;;;;22.85;8.40;;;;;;;;;;4394395;32;20061;-75
2022/10/12 15:42:19;;;;;;;20.17;8.98;;;;;;;;;;4406000;32;20375;-75
2022/10/12 15:45:00;;;;;;;;;;;;;;;;;;;;;
2022/10/12 15:50:36;;;;;;;19.35;9.27;;;;;;;;;;4376732;32;20069;-75
2022/10/12 15:53:02;;;;;;;22.83;10.52;;;;;;;;;;4367282;32;20039;-74
2022/10/12 15:55:30;;;;;;;31.83;13.27;;;;;;;;;;4383972;32;20077;-74
2022/10/12 15:57:59;;;;;;;33.05;14.85;;;;;;;;;;4402710;32;20023;-75
2022/10/12 16:00:26;;;;;;;24.63;13.02;;;;;;;;;;4403856;32;20026;-75
2022/10/12 16:02:52;;;;;;;23.90;12.68;;;;;;;;;;4403416;32;20071;-74
2022/10/12 16:05:20;;;;;;;19.25;11.12;;;;;;;;;;4402499;32;20416;-75
2022/10/12 16:07:45;;;;;;;22.27;10.55;;;;;;;;;;4404083;32;20468;-74
2022/10/12 16:10:14;;;;;;;25.33;11.98;;;;;;;;;;4403783;32;20097;-74
2022/10/12 16:12:43;;;;;;;22.75;11.27;;;;;;;;;;4403030;32;20042;-75
2022/10/12 16:15:13;;;;;;;20.05;10.68;;;;;;;;;;4404652;32;20026;-75
2022/10/12 16:17:38;;;;;;;28.55;11.48;;;;;;;;;;4402804;32;20495;-75
2022/10/12 16:20:07;;;;;;;21.55;9.32;;;;;;;;;;4390041;32;20052;-75
2022/10/12 16:22:33;;;;;;;19.77;8.80;;;;;;;;;;4402550;32;20458;-75